Time;durP1;ratioP1;P1;durP2;ratioP2;P2;SDS_P1;SDS_P2;PMS_P1;PMS_P2;Temp;Humidity;BMP_temperature;BMP_pressure;BME280_temperature;BME280_humidity;BME280_pressure;Samples;Min_cycle;Max_cycle;Signal;HPM_P1;HPM_P2
2024/04/13 00:01:53;;;;;;;8.27;7.60;;;12.70;99.90;;;;;;6810824;26;20464;-59
2024/04/13 00:05:17;;;;;;;9.13;7.97;;;12.70;99.90;;;;;;6811551;26;20528;-59
2024/04/13 00:08:24;;;;;;;8.60;7.20;;;12.60;99.90;;;;;;6811410;26;20524;-59
2024/04/13 00:11:37;;;;;;;7.90;7.30;;;12.60;99.90;;;;;;6810133;26;20958;-59
2024/04/13 00:14:52;;;;;;;9.20;7.00;;;12.50;99.90;;;;;;6803723;26;20873;-58
2024/04/13 00:18:12;;;;;;;6.77;6.17;;;12.60;99.90;;;;;;6792270;26;21339;-59
2024/04/13 00:21:30;;;;;;;7.43;6.83;;;12.40;99.90;;;;;;6810011;26;20673;-59
2024/04/13 00:24:41;;;;;;;8.00;7.30;;;12.40;99.90;;;;;;6813792;26;20543;-59
2024/04/13 00:27:44;;;;;;;7.17;6.63;;;12.30;99.90;;;;;;6813024;26;20544;-59
2024/04/13 00:30:52;;;;;;;7.50;6.90;;;12.30;99.90;;;;;;6811200;26;20531;-59
2024/04/13 00:34:00;;;;;;;7.53;6.80;;;12.30;99.90;;;;;;6815231;26;20828;-59
2024/04/13 00:37:11;;;;;;;8.23;7.03;;;12.20;99.90;;;;;;6814226;26;20840;-59
2024/04/13 00:40:18;;;;;;;8.80;7.03;;;12.20;99.90;;;;;;6808505;26;20468;-58
2024/04/13 00:43:28;;;;;;;7.63;7.03;;;12.20;99.90;;;;;;6810572;26;20459;-61
2024/04/13 00:46:47;;;;;;;8.50;6.97;;;12.10;99.90;;;;;;6809941;26;20564;-61
2024/04/13 00:49:55;;;;;;;9.30;8.40;;;12.10;99.90;;;;;;6812265;26;20688;-61
2024/04/13 00:53:23;;;;;;;7.43;6.77;;;12.00;99.90;;;;;;6808704;26;20547;-62
2024/04/13 00:56:34;;;;;;;11.77;7.17;;;12.00;99.90;;;;;;6812146;26;20528;-61
2024/04/13 00:59:44;;;;;;;7.87;7.03;;;12.00;99.90;;;;;;6803929;26;20475;-60
2024/04/13 01:02:52;;;;;;;8.47;7.57;;;11.90;99.90;;;;;;6812978;26;20525;-61
2024/04/13 01:05:57;;;;;;;6.60;6.10;;;11.90;99.90;;;;;;6817280;26;20568;-61
2024/04/13 01:09:08;;;;;;;8.50;7.13;;;11.90;99.90;;;;;;6812454;26;20524;-61
2024/04/13 01:12:21;;;;;;;8.20;7.10;;;11.80;99.90;;;;;;6806858;26;20476;-61
2024/04/13 01:15:29;;;;;;;8.83;8.03;;;11.80;99.90;;;;;;6810210;26;20471;-61
2024/04/13 01:18:47;;;;;;;8.40;7.63;;;11.70;99.90;;;;;;6808150;26;20523;-62
2024/04/13 01:22:10;;;;;;;8.00;7.40;;;11.70;99.90;;;;;;6777865;26;20528;-61
2024/04/13 01:25:30;;;;;;;8.60;7.80;;;11.60;99.90;;;;;;6813030;26;20973;-62
2024/04/13 01:28:37;;;;;;;8.10;7.40;;;11.60;99.90;;;;;;6805771;26;20536;-61
2024/04/13 01:31:43;;;;;;;8.30;7.60;;;11.60;99.90;;;;;;6814147;26;20468;-61
2024/04/13 01:34:48;;;;;;;8.77;7.87;;;11.60;99.90;;;;;;6808071;26;20980;-61
2024/04/13 01:37:58;;;;;;;9.67;8.07;;;11.50;99.90;;;;;;6749417;26;20531;-61
2024/04/13 01:41:17;;;;;;;8.60;7.80;;;11.50;99.90;;;;;;6801981;26;20544;-62
2024/04/13 01:44:35;;;;;;;10.83;7.90;;;11.50;99.90;;;;;;6799625;26;20527;-61
2024/04/13 01:47:41;;;;;;;9.10;8.20;;;11.40;99.90;;;;;;6812351;26;21046;-61
2024/04/13 01:50:57;;;;;;;8.03;7.43;;;11.40;99.90;;;;;;6811207;26;20985;-61
2024/04/13 01:54:03;;;;;;;8.50;7.17;;;11.40;99.90;;;;;;6813625;26;20516;-61
2024/04/13 01:57:10;;;;;;;15.03;8.00;;;11.30;99.90;;;;;;6800183;26;20961;-61
2024/04/13 02:00:20;;;;;;;7.60;7.00;;;11.30;99.90;;;;;;6813638;26;20460;-61
2024/04/13 02:03:24;;;;;;;8.67;7.10;;;11.30;99.90;;;;;;6813763;26;20472;-61
2024/04/13 02:06:31;;;;;;;8.00;7.40;;;11.30;99.90;;;;;;6807358;26;20596;-60
2024/04/13 02:09:34;;;;;;;9.40;7.83;;;11.20;99.90;;;;;;6784596;26;20511;-61
2024/04/13 02:12:57;;;;;;;8.13;7.33;;;11.20;99.90;;;;;;6812496;26;20510;-61
2024/04/13 02:16:01;;;;;;;7.93;7.30;;;11.10;99.90;;;;;;6813594;26;20468;-61
2024/04/13 02:19:15;;;;;;;8.37;7.63;;;11.10;99.90;;;;;;6813062;26;20459;-61
2024/04/13 02:22:22;;;;;;;9.00;8.10;;;11.10;99.90;;;;;;6813552;26;20468;-61
2024/04/13 02:25:37;;;;;;;8.80;8.10;;;11.10;99.90;;;;;;6813230;26;20531;-61
2024/04/13 02:29:01;;;;;;;10.23;9.03;;;11.00;99.90;;;;;;6813272;26;20520;-61
2024/04/13 02:32:06;;;;;;;9.23;8.20;;;11.00;99.90;;;;;;6814119;26;20475;-61
2024/04/13 02:35:13;;;;;;;8.57;7.70;;;11.00;99.90;;;;;;6812832;26;20472;-61
2024/04/13 02:38:17;;;;;;;9.13;8.33;;;11.00;99.90;;;;;;6812968;26;20547;-61
2024/04/13 02:41:32;;;;;;;9.57;8.63;;;11.00;99.90;;;;;;6812841;26;20536;-60
2024/04/13 02:44:38;;;;;;;9.40;8.70;;;10.90;99.90;;;;;;6812433;26;21076;-61
2024/04/13 02:47:44;;;;;;;10.40;9.23;;;10.90;99.90;;;;;;6811640;26;20508;-60
2024/04/13 02:50:49;;;;;;;9.40;8.50;;;10.90;99.90;;;;;;6810948;26;20516;-61
2024/04/13 02:53:59;;;;;;;10.20;9.27;;;10.80;99.90;;;;;;6812368;26;20464;-60
2024/04/13 02:57:05;;;;;;;10.33;9.43;;;10.90;99.90;;;;;;6813396;26;20460;-61
2024/04/13 03:00:25;;;;;;;10.40;9.50;;;10.90;99.90;;;;;;6806504;26;20570;-61
2024/04/13 03:03:34;;;;;;;12.20;11.10;;;10.80;99.90;;;;;;6813166;26;20500;-61
2024/04/13 03:06:40;;;;;;;11.93;10.83;;;10.80;99.90;;;;;;6812252;26;20472;-60
2024/04/13 03:09:54;;;;;;;11.10;10.13;;;10.90;99.90;;;;;;6813149;26;20491;-61
2024/04/13 03:12:56;;;;;;;12.47;11.17;;;10.90;99.90;;;;;;6809711;26;20460;-61
2024/04/13 03:16:12;;;;;;;12.93;11.80;;;10.80;99.90;;;;;;6811071;26;21270;-61
2024/04/13 03:19:20;;;;;;;12.13;10.93;;;10.80;99.90;;;;;;6790678;26;20568;-61
2024/04/13 03:22:33;;;;;;;13.23;11.80;;;10.80;99.90;;;;;;6810859;26;20536;-61
2024/04/13 03:25:38;;;;;;;12.53;11.23;;;10.90;99.90;;;;;;6804435;26;20895;-61
2024/04/13 03:28:44;;;;;;;12.87;11.50;;;10.90;99.90;;;;;;6803737;26;20529;-61
2024/04/13 03:31:55;;;;;;;12.77;11.67;;;10.90;99.90;;;;;;6811816;26;20857;-61
2024/04/13 03:35:00;;;;;;;11.83;10.70;;;10.90;99.90;;;;;;6812057;26;20521;-60
2024/04/13 03:38:09;;;;;;;15.10;11.67;;;10.90;99.90;;;;;;6811167;26;20463;-61
2024/04/13 03:41:15;;;;;;;15.53;12.67;;;10.90;99.90;;;;;;6811787;26;20456;-61
2024/04/13 03:44:31;;;;;;;12.30;11.20;;;10.90;99.90;;;;;;6811243;26;20590;-59
2024/04/13 03:47:49;;;;;;;13.87;11.47;;;10.90;99.90;;;;;;6766966;26;20457;-61
2024/04/13 03:50:56;;;;;;;10.80;9.80;;;10.80;99.90;;;;;;6766216;26;21003;-61
2024/04/13 03:54:01;;;;;;;10.70;9.60;;;10.80;99.90;;;;;;6774309;26;20449;-61
2024/04/13 03:57:09;;;;;;;11.80;10.57;;;10.80;99.90;;;;;;6810128;26;20512;-61
2024/04/13 04:00:15;;;;;;;11.30;10.20;;;10.80;99.90;;;;;;6811124;26;20512;-63
2024/04/13 04:03:38;;;;;;;10.33;9.43;;;10.70;99.90;;;;;;6810651;26;20566;-61
2024/04/13 04:06:43;;;;;;;12.57;9.20;;;10.70;99.90;;;;;;6811560;26;20516;-61
2024/04/13 04:10:05;;;;;;;10.73;9.60;;;10.60;99.90;;;;;;6811588;26;20452;-62
2024/04/13 04:13:13;;;;;;;10.80;9.73;;;10.60;99.90;;;;;;6810706;26;20461;-61
2024/04/13 04:16:17;;;;;;;12.23;11.03;;;10.50;99.90;;;;;;6811742;26;20520;-61
2024/04/13 04:19:42;;;;;;;11.57;10.53;;;10.50;99.90;;;;;;6811066;26;20459;-61
2024/04/13 04:22:50;;;;;;;12.53;11.33;;;10.50;99.90;;;;;;6810674;26;20469;-61
2024/04/13 04:25:55;;;;;;;11.00;9.97;;;10.70;99.90;;;;;;6803524;26;20472;-61
2024/04/13 04:29:02;;;;;;;12.00;10.80;;;10.70;99.90;;;;;;6810688;26;20956;-61
2024/04/13 04:32:13;;;;;;;11.03;10.03;;;10.90;99.90;;;;;;6810383;26;21026;-61
2024/04/13 04:35:37;;;;;;;11.60;10.50;;;11.10;99.90;;;;;;6774774;26;20528;-61
2024/04/13 04:38:46;;;;;;;12.53;8.50;;;11.40;99.90;;;;;;6763667;26;20522;-61
2024/04/13 04:41:52;;;;;;;10.40;9.60;;;11.80;99.90;;;;;;6734177;26;20457;-61
2024/04/13 04:45:06;;;;;;;9.27;8.27;;;12.20;99.90;;;;;;6764911;26;20480;-61
2024/04/13 04:48:12;;;;;;;11.00;8.37;;;12.80;99.90;;;;;;6765047;26;20560;-61
2024/04/13 04:51:36;;;;;;;10.30;7.03;;;13.30;99.90;;;;;;6789647;26;20464;-61
2024/04/13 04:54:40;;;;;;;10.73;8.37;;;13.70;99.90;;;;;;6809502;26;20468;-62
2024/04/13 04:57:54;;;;;;;9.27;8.47;;;14.10;99.90;;;;;;6808801;26;20475;-61
2024/04/13 05:01:04;;;;;;;7.07;6.10;;;14.40;99.90;;;;;;6809591;26;20524;-62
2024/04/13 05:04:08;;;;;;;7.17;6.50;;;14.70;99.90;;;;;;6809025;26;20773;-61
2024/04/13 05:07:29;;;;;;;8.57;6.70;;;15.10;99.90;;;;;;6809305;26;20456;-61
2024/04/13 05:10:37;;;;;;;7.20;6.60;;;15.20;99.90;;;;;;6787327;26;20473;-62
2024/04/13 05:13:44;;;;;;;8.20;6.67;;;15.30;99.90;;;;;;6768413;26;20469;-61
2024/04/13 05:16:50;;;;;;;10.20;7.20;;;15.50;99.90;;;;;;6790969;26;21056;-61
2024/04/13 05:20:07;;;;;;;7.63;7.00;;;15.60;99.90;;;;;;6815282;26;21032;-61
2024/04/13 05:23:21;;;;;;;8.10;7.40;;;15.60;99.40;;;;;;6815032;26;21037;-62
2024/04/13 05:26:33;;;;;;;9.00;7.20;;;15.90;99.20;;;;;;6814700;26;20472;-62
2024/04/13 05:29:38;;;;;;;6.90;6.23;;;16.10;98.50;;;;;;6815161;26;20969;-62
2024/04/13 05:32:46;;;;;;;7.20;6.50;;;16.30;98.10;;;;;;6815704;26;20574;-61
2024/04/13 05:35:57;;;;;;;6.27;5.77;;;16.50;97.50;;;;;;6805523;26;20541;-61
2024/04/13 05:39:16;;;;;;;7.50;6.80;;;16.90;96.80;;;;;;6768615;26;20469;-61
2024/04/13 05:42:25;;;;;;;7.90;6.00;;;17.30;95.70;;;;;;6769359;26;21298;-62
2024/04/13 05:45:39;;;;;;;6.43;5.83;;;17.80;94.80;;;;;;6768009;26;20481;-61
2024/04/13 05:48:46;;;;;;;6.83;6.20;;;18.30;93.60;;;;;;6812566;26;20536;-62
2024/04/13 05:51:54;;;;;;;6.10;5.60;;;18.80;92.20;;;;;;6813719;26;20582;-62
2024/04/13 05:55:04;;;;;;;7.27;6.30;;;19.20;91.10;;;;;;6814093;26;20238;-61
2024/04/13 05:58:14;;;;;;;8.40;7.33;;;19.60;89.60;;;;;;6813512;26;20227;-62
2024/04/13 06:01:28;;;;;;;6.90;6.30;;;20.20;86.80;;;;;;6814332;26;20223;-61
2024/04/13 06:04:34;;;;;;;7.43;6.83;;;20.70;83.80;;;;;;6812736;26;20762;-61
2024/04/13 06:07:43;;;;;;;10.33;6.63;;;21.50;80.60;;;;;;6814183;26;20315;-61
2024/04/13 06:11:07;;;;;;;6.60;6.00;;;22.70;76.00;;;;;;6813728;26;20277;-62
2024/04/13 06:14:12;;;;;;;7.13;6.53;;;24.30;69.70;;;;;;6812397;26;20603;-61
2024/04/13 06:17:26;;;;;;;7.30;6.60;;;25.90;62.60;;;;;;6813924;26;20235;-63
2024/04/13 06:20:32;;;;;;;8.70;7.53;;;27.70;56.10;;;;;;6812080;26;20230;-62
2024/04/13 06:23:43;;;;;;;7.07;6.37;;;29.40;50.40;;;;;;6813081;26;20266;-62
2024/04/13 06:26:59;;;;;;;6.73;6.23;;;31.00;45.90;;;;;;6792574;26;20717;-62
2024/04/13 06:30:13;;;;;;;7.38;6.75;;;32.80;41.50;;;;;;6768510;26;20219;-62
2024/04/13 06:33:25;;;;;;;6.55;6.05;;;34.10;37.50;;;;;;6768353;26;20232;-62
2024/04/13 06:36:36;;;;;;;6.05;5.55;;;35.40;34.50;;;;;;6767680;26;20239;-62
2024/04/13 06:39:45;;;;;;;6.80;6.13;;;36.80;31.70;;;;;;6768260;26;20325;-62
2024/04/13 06:43:06;;;;;;;6.72;6.10;;;37.80;29.10;;;;;;6779444;26;20230;-61
2024/04/13 06:46:09;;;;;;;8.25;6.28;;;38.40;27.80;;;;;;6813788;26;20994;-62
2024/04/13 06:49:24;;;;;;;6.30;5.80;;;39.20;26.80;;;;;;6812920;26;20643;-63
2024/04/13 06:52:29;;;;;;;6.80;5.93;;;40.20;26.10;;;;;;6812520;26;20327;-61
2024/04/13 06:55:37;;;;;;;6.30;5.80;;;41.20;24.50;;;;;;6811811;26;20323;-62
2024/04/13 06:58:44;;;;;;;6.15;5.65;;;42.20;23.10;;;;;;6812517;26;20303;-62
2024/04/13 07:01:56;;;;;;;6.28;5.78;;;42.90;22.30;;;;;;6812561;26;20342;-62
2024/04/13 07:05:00;;;;;;;7.97;6.28;;;43.70;21.50;;;;;;6811906;26;20238;-62
2024/04/13 07:08:11;;;;;;;9.10;6.30;;;44.70;20.90;;;;;;6811092;26;20241;-62
2024/04/13 07:11:18;;;;;;;7.53;6.90;;;45.20;19.90;;;;;;6812024;26;20219;-63
2024/04/13 07:14:43;;;;;;;7.13;6.50;;;45.70;19.30;;;;;;6811806;26;20294;-61
2024/04/13 07:17:47;;;;;;;6.70;6.00;;;45.90;18.80;;;;;;6812298;26;20323;-62
2024/04/13 07:20:57;;;;;;;5.95;5.45;;;44.80;19.40;;;;;;6812056;26;20264;-62
2024/04/13 07:24:02;;;;;;;6.82;6.30;;;44.40;19.90;;;;;;6774425;26;20231;-62
2024/04/13 07:27:09;;;;;;;7.18;6.60;;;45.40;18.90;;;;;;6764517;26;20224;-63
2024/04/13 07:30:17;;;;;;;7.55;6.53;;;46.30;18.60;;;;;;6765981;26;20259;-63
2024/04/13 07:33:31;;;;;;;7.00;5.97;;;47.60;17.80;;;;;;6764817;26;20224;-62
2024/04/13 07:36:35;;;;;;;6.25;5.80;;;48.90;17.20;;;;;;6764846;26;20239;-62
2024/04/13 07:43:03;;;;;;;6.63;6.13;;;50.60;15.90;;;;;;6811221;26;20545;-63
2024/04/13 07:46:21;;;;;;;6.35;5.75;;;50.90;15.00;;;;;;6810851;26;20242;-63
2024/04/13 07:49:36;;;;;;;7.40;6.60;;;51.20;14.30;;;;;;6807121;26;20288;-64
2024/04/13 07:52:42;;;;;;;6.45;5.95;;;51.90;14.00;;;;;;6773176;26;20285;-64
2024/04/13 07:55:58;;;;;;;6.40;5.90;;;50.30;14.50;;;;;;6811411;26;20275;-63
2024/04/13 07:59:08;;;;;;;6.68;6.28;;;49.90;14.70;;;;;;6799235;26;20244;-64
2024/04/13 08:02:20;;;;;;;6.00;5.53;;;49.10;15.20;;;;;;6808722;26;20341;-64
2024/04/13 08:05:28;;;;;;;8.00;7.32;;;48.60;15.80;;;;;;6811135;26;20330;-63
2024/04/13 08:08:37;;;;;;;6.22;5.72;;;47.50;15.60;;;;;;6805961;26;20308;-64
2024/04/13 08:11:41;;;;;;;6.97;6.18;;;49.00;15.60;;;;;;6809708;26;20234;-63
2024/04/13 08:14:55;;;;;;;7.00;6.30;;;50.40;15.00;;;;;;6811045;26;20237;-63
2024/04/13 08:18:15;;;;;;;6.68;6.18;;;49.60;15.30;;;;;;6809759;26;20787;-64
2024/04/13 08:21:31;;;;;;;6.00;5.45;;;49.60;15.00;;;;;;6805660;26;20249;-63
2024/04/13 08:24:38;;;;;;;6.63;5.95;;;50.10;14.40;;;;;;6809094;26;20291;-64
2024/04/13 08:27:47;;;;;;;6.22;5.82;;;50.60;13.70;;;;;;6808137;26;20689;-63
2024/04/13 08:31:03;;;;;;;7.53;6.18;;;50.70;13.70;;;;;;6807864;26;20297;-64
2024/04/13 08:34:26;;;;;;;6.95;6.45;;;49.60;14.00;;;;;;6806426;26;20226;-63
2024/04/13 08:37:31;;;;;;;6.28;5.78;;;48.60;14.40;;;;;;6804096;26;20348;-63
2024/04/13 08:40:43;;;;;;;7.13;6.53;;;48.60;14.30;;;;;;6807768;26;20654;-63
2024/04/13 08:43:48;;;;;;;6.72;6.20;;;47.50;14.70;;;;;;6802288;26;20239;-63
2024/04/13 08:47:02;;;;;;;6.88;6.38;;;47.50;15.20;;;;;;6789555;26;20239;-64
2024/04/13 08:50:30;;;;;;;8.00;7.50;;;48.60;15.00;;;;;;6813895;26;20231;-63
2024/04/13 08:53:36;;;;;;;6.35;5.78;;;50.00;14.10;;;;;;6812976;26;20224;-63
2024/04/13 08:56:45;;;;;;;6.95;6.35;;;50.00;14.50;;;;;;6779257;26;20241;-64
2024/04/13 08:59:52;;;;;;;7.10;6.45;;;50.90;14.10;;;;;;6799223;26;20231;-63
2024/04/13 09:02:59;;;;;;;7.35;5.78;;;50.70;13.90;;;;;;6815428;26;20222;-63
2024/04/13 09:06:17;;;;;;;5.57;5.10;;;52.40;13.40;;;;;;6814768;26;20289;-64
2024/04/13 09:09:34;;;;;;;5.88;5.57;;;53.50;12.80;;;;;;6815224;26;20269;-63
2024/04/13 09:12:41;;;;;;;6.10;5.28;;;53.60;12.00;;;;;;6814260;26;20281;-63
2024/04/13 09:15:47;;;;;;;5.80;4.20;;;52.10;12.50;;;;;;6815842;26;20236;-63
2024/04/13 09:19:04;;;;;;;4.95;4.55;;;53.10;11.70;;;;;;6815173;26;20234;-63
2024/04/13 09:22:25;;;;;;;3.53;3.20;;;50.90;11.70;;;;;;6812683;26;20275;-64
2024/04/13 09:25:40;;;;;;;5.82;5.22;;;49.50;12.00;;;;;;6790921;26;20246;-63
2024/04/13 09:28:46;;;;;;;4.15;3.67;;;48.10;12.70;;;;;;6780518;26;20334;-63
2024/04/13 09:32:01;;;;;;;5.18;4.78;;;49.90;12.30;;;;;;6772135;26;20574;-63
2024/04/13 09:35:10;;;;;;;5.07;4.40;;;50.10;11.90;;;;;;6814329;26;20285;-63
2024/04/13 09:38:32;;;;;;;4.82;4.43;;;50.00;11.90;;;;;;6814665;26;20227;-64
2024/04/13 09:41:39;;;;;;;3.40;3.10;;;49.70;12.60;;;;;;6815627;26;20550;-64
2024/04/13 09:44:47;;;;;;;5.38;4.05;;;51.10;10.80;;;;;;6816159;26;20235;-64
2024/04/13 09:47:55;;;;;;;4.13;3.70;;;52.80;11.00;;;;;;6815465;26;20269;-63
2024/04/13 09:51:10;;;;;;;3.92;3.53;;;53.70;10.00;;;;;;6816348;26;20312;-63
2024/04/13 09:54:18;;;;;;;4.15;3.80;;;54.50;9.50;;;;;;6809539;26;20336;-64
2024/04/13 09:57:39;;;;;;;3.45;3.15;;;52.80;10.00;;;;;;6811530;26;20669;-65
2024/04/13 10:00:46;;;;;;;3.40;3.20;;;50.40;11.10;;;;;;6811442;26;20234;-64
2024/04/13 10:03:59;;;;;;;5.25;3.53;;;51.80;10.70;;;;;;6809416;26;20239;-64
2024/04/13 10:07:06;;;;;;;2.85;2.63;;;53.80;9.70;;;;;;6811716;26;20288;-64
2024/04/13 10:10:34;;;;;;;2.90;2.70;;;55.20;9.10;;;;;;6804695;26;20272;-63
2024/04/13 10:13:42;;;;;;;3.53;3.20;;;56.90;8.20;;;;;;6811069;26;20598;-63
2024/04/13 10:16:55;;;;;;;3.80;3.50;;;58.20;7.50;;;;;;6810196;26;20285;-63
2024/04/13 10:19:59;;;;;;;2.88;2.67;;;55.80;7.70;;;;;;6811137;26;20262;-63
2024/04/13 10:23:15;;;;;;;2.65;2.45;;;54.40;7.70;;;;;;6811322;26;20307;-63
2024/04/13 10:26:32;;;;;;;2.70;2.50;;;54.20;7.90;;;;;;6811545;26;20748;-64
2024/04/13 10:29:40;;;;;;;2.95;2.58;;;53.80;7.80;;;;;;6812144;26;20277;-63
2024/04/13 10:32:51;;;;;;;3.08;2.75;;;54.70;8.00;;;;;;6802693;26;20273;-63
2024/04/13 10:35:57;;;;;;;4.38;2.58;;;56.60;7.60;;;;;;6801294;26;20590;-64
2024/04/13 10:39:26;;;;;;;2.30;2.10;;;57.50;6.40;;;;;;6780155;26;20996;-65
2024/04/13 10:42:54;;;;;;;2.72;2.20;;;58.10;6.10;;;;;;6812774;26;20265;-64
2024/04/13 10:46:08;;;;;;;3.80;3.50;;;58.80;6.10;;;;;;6812923;26;20235;-64
2024/04/13 10:49:17;;;;;;;3.05;2.70;;;57.10;6.70;;;;;;6812490;26;20232;-64
2024/04/13 10:52:27;;;;;;;3.60;2.90;;;56.80;6.30;;;;;;6812393;26;20280;-66
2024/04/13 10:55:41;;;;;;;2.88;2.58;;;56.90;6.70;;;;;;6812610;26;20687;-64
2024/04/13 10:58:51;;;;;;;2.67;2.47;;;55.30;7.00;;;;;;6780556;26;20699;-64
2024/04/13 11:02:06;;;;;;;2.63;2.45;;;55.50;7.10;;;;;;6811833;26;20266;-66
2024/04/13 11:05:21;;;;;;;3.45;2.35;;;56.00;7.10;;;;;;6812516;26;20312;-65
2024/04/13 11:08:31;;;;;;;3.22;2.92;;;51.00;8.60;;;;;;6812353;26;20930;-65
2024/04/13 11:11:45;;;;;;;2.70;2.50;;;49.10;9.70;;;;;;6811326;26;20261;-66
2024/04/13 11:15:02;;;;;;;3.13;2.85;;;47.60;10.10;;;;;;6812567;26;20237;-66
2024/04/13 11:18:19;;;;;;;2.80;2.60;;;49.50;10.00;;;;;;6810864;26;20572;-64
2024/04/13 11:21:28;;;;;;;3.92;2.50;;;48.10;10.40;;;;;;6812007;26;20741;-65
2024/04/13 11:24:34;;;;;;;3.83;3.05;;;45.10;11.60;;;;;;6811595;26;20283;-66
2024/04/13 11:27:38;;;;;;;3.78;2.75;;;45.70;11.50;;;;;;6812561;26;20260;-64
2024/04/13 11:30:57;;;;;;;5.20;3.17;;;44.40;12.10;;;;;;6813155;26;20526;-66
2024/04/13 11:34:03;;;;;;;3.63;3.22;;;44.90;12.30;;;;;;6813001;26;20843;-64
2024/04/13 11:37:23;;;;;;;4.28;3.13;;;44.50;12.50;;;;;;6813092;25;20262;-64
2024/04/13 11:40:33;;;;;;;2.97;2.78;;;44.90;12.90;;;;;;6814122;26;20224;-64
2024/04/13 11:43:42;;;;;;;3.45;2.58;;;45.30;12.30;;;;;;6813890;26;20234;-64
2024/04/13 11:46:52;;;;;;;3.65;3.05;;;44.80;11.90;;;;;;6808580;26;20247;-65
2024/04/13 11:50:07;;;;;;;3.47;2.47;;;44.40;11.90;;;;;;6810703;26;20234;-64
2024/04/13 11:53:11;;;;;;;3.05;2.58;;;43.20;12.30;;;;;;6809988;26;20234;-64
2024/04/13 11:56:26;;;;;;;6.63;2.15;;;42.60;12.70;;;;;;6809293;26;20241;-67
2024/04/13 11:59:34;;;;;;;2.53;2.08;;;41.60;13.30;;;;;;6807138;26;20533;-64
2024/04/13 12:02:43;;;;;;;3.47;2.15;;;39.70;14.40;;;;;;6809671;26;20357;-63
2024/04/13 12:05:56;;;;;;;3.75;2.85;;;39.80;14.60;;;;;;6809041;26;20292;-64
2024/04/13 12:09:06;;;;;;;3.00;2.75;;;39.00;15.30;;;;;;6810913;26;20308;-64
2024/04/13 12:12:13;;;;;;;2.75;2.55;;;38.10;15.80;;;;;;6810179;26;20218;-63
2024/04/13 12:15:17;;;;;;;4.75;2.65;;;37.20;16.00;;;;;;6803315;26;20291;-64
2024/04/13 12:18:33;;;;;;;3.75;2.83;;;36.80;17.00;;;;;;6767006;26;20266;-64
2024/04/13 12:21:38;;;;;;;2.58;2.38;;;36.40;17.30;;;;;;6800913;26;20542;-64
2024/04/13 12:24:45;;;;;;;2.65;2.30;;;35.90;17.40;;;;;;6814645;26;20234;-64
2024/04/13 12:27:52;;;;;;;3.20;2.50;;;35.50;17.90;;;;;;6815935;26;20218;-64
2024/04/13 12:31:03;;;;;;;2.63;2.30;;;35.10;18.10;;;;;;6816036;26;20226;-65
2024/04/13 12:34:20;;;;;;;6.80;2.40;;;34.40;19.10;;;;;;6816397;26;20269;-65
2024/04/13 12:37:27;;;;;;;5.25;2.70;;;32.90;20.00;;;;;;6815670;26;20281;-64
2024/04/13 12:40:33;;;;;;;3.40;2.38;;;32.20;20.70;;;;;;6809284;26;20238;-64
2024/04/13 12:43:52;;;;;;;4.63;2.70;;;31.50;21.30;;;;;;6815834;26;20218;-64
2024/04/13 12:46:56;;;;;;;3.95;2.55;;;31.20;21.80;;;;;;6813191;26;21029;-65
2024/04/13 12:50:19;;;;;;;2.92;2.63;;;30.80;22.20;;;;;;6814611;26;20297;-62
2024/04/13 12:53:26;;;;;;;3.45;2.58;;;30.50;22.30;;;;;;6813946;26;20328;-64
2024/04/13 12:56:31;;;;;;;3.35;2.53;;;29.90;23.10;;;;;;6814585;26;20746;-63
2024/04/13 12:59:38;;;;;;;2.75;2.10;;;30.00;23.40;;;;;;6813403;26;20219;-63
2024/04/13 13:02:41;;;;;;;3.85;2.83;;;30.00;23.30;;;;;;6815217;26;20219;-63
2024/04/13 13:06:06;;;;;;;3.35;2.72;;;29.70;23.70;;;;;;6814793;26;20238;-63
2024/04/13 13:09:10;;;;;;;3.35;2.72;;;29.40;23.90;;;;;;6813656;26;20235;-63
2024/04/13 13:12:17;;;;;;;3.63;2.83;;;29.30;24.40;;;;;;6813683;26;20549;-63
2024/04/13 13:15:21;;;;;;;3.00;2.55;;;29.30;24.70;;;;;;6803052;26;20242;-63
2024/04/13 13:18:27;;;;;;;4.90;3.13;;;29.10;24.70;;;;;;6814139;26;20234;-64
2024/04/13 13:21:49;;;;;;;3.17;2.37;;;28.90;25.00;;;;;;6813832;26;20298;-62
2024/04/13 13:24:53;;;;;;;7.72;3.30;;;28.60;24.80;;;;;;6812269;26;20324;-63
2024/04/13 13:28:01;;;;;;;3.50;2.87;;;28.40;25.40;;;;;;6799284;26;20297;-64
2024/04/13 13:31:06;;;;;;;2.50;2.30;;;28.10;25.10;;;;;;6808512;26;20254;-63
2024/04/13 13:34:15;;;;;;;5.40;2.90;;;27.90;25.10;;;;;;6814439;26;20380;-63
2024/04/13 13:37:24;;;;;;;3.57;2.87;;;27.80;25.80;;;;;;6812899;26;20242;-62
2024/04/13 13:40:31;;;;;;;4.63;2.90;;;27.50;26.20;;;;;;6807119;26;20650;-63
2024/04/13 13:43:36;;;;;;;2.93;2.73;;;27.20;26.40;;;;;;6771597;26;20242;-63
2024/04/13 13:46:47;;;;;;;3.50;2.63;;;27.20;26.70;;;;;;6814755;26;20555;-62
2024/04/13 13:49:58;;;;;;;3.30;2.30;;;27.20;26.80;;;;;;6810870;26;20788;-63
2024/04/13 13:53:20;;;;;;;3.13;2.30;;;27.20;26.60;;;;;;6812968;26;20277;-63
2024/04/13 13:56:28;;;;;;;2.70;2.47;;;27.10;26.70;;;;;;6814756;26;20231;-64
2024/04/13 13:59:35;;;;;;;4.80;2.37;;;27.10;26.70;;;;;;6813442;26;20234;-62
2024/04/13 14:02:52;;;;;;;2.80;2.40;;;26.90;26.70;;;;;;6813957;26;20731;-62
2024/04/13 14:06:05;;;;;;;3.30;2.90;;;27.00;26.80;;;;;;6797794;26;20297;-62
2024/04/13 14:09:14;;;;;;;5.87;3.17;;;27.10;27.30;;;;;;6813526;26;20628;-61
2024/04/13 14:12:22;;;;;;;3.20;2.60;;;26.90;26.50;;;;;;6813210;26;20273;-62
2024/04/13 14:15:30;;;;;;;3.90;2.57;;;26.60;27.10;;;;;;6802561;26;20226;-62
2024/04/13 14:18:39;;;;;;;2.73;2.53;;;26.40;27.30;;;;;;6812410;26;20399;-61
2024/04/13 14:21:42;;;;;;;3.53;2.47;;;26.40;27.70;;;;;;6803565;26;20242;-60
2024/04/13 14:24:55;;;;;;;3.30;2.60;;;26.30;27.40;;;;;;6800805;26;20284;-61
2024/04/13 14:28:01;;;;;;;4.53;2.47;;;26.30;27.90;;;;;;6809170;26;20242;-61
2024/04/13 14:31:07;;;;;;;3.73;2.80;;;26.20;27.40;;;;;;6769127;26;20227;-61
2024/04/13 14:34:19;;;;;;;4.60;2.63;;;26.10;27.80;;;;;;6803140;26;20238;-61
2024/04/13 14:37:22;;;;;;;2.93;2.70;;;26.00;28.00;;;;;;6813562;26;20312;-61
2024/04/13 14:40:38;;;;;;;3.50;2.63;;;25.90;28.30;;;;;;6814924;26;20242;-61
2024/04/13 14:43:42;;;;;;;4.47;2.93;;;25.90;28.30;;;;;;6815458;26;20650;-62
2024/04/13 14:46:53;;;;;;;2.47;2.27;;;25.90;28.00;;;;;;6801115;26;20246;-61
2024/04/13 14:50:02;;;;;;;4.20;2.83;;;25.80;27.80;;;;;;6813770;26;20238;-62
2024/04/13 14:53:10;;;;;;;3.07;2.33;;;25.80;28.00;;;;;;6802961;26;20238;-61
2024/04/13 14:56:20;;;;;;;2.37;2.17;;;25.80;27.90;;;;;;6816652;26;20398;-61
2024/04/13 14:59:29;;;;;;;4.93;2.20;;;25.70;28.20;;;;;;6755569;26;20228;-61
2024/04/13 15:02:43;;;;;;;3.90;2.70;;;25.70;28.20;;;;;;6774038;26;20877;-62
2024/04/13 15:05:46;;;;;;;2.70;2.50;;;25.60;28.50;;;;;;6812320;26;20238;-62
2024/04/13 15:09:03;;;;;;;4.10;2.70;;;25.50;28.20;;;;;;6811967;26;20261;-61
2024/04/13 15:12:18;;;;;;;2.60;2.33;;;25.50;28.60;;;;;;6811766;26;20226;-61
2024/04/13 15:15:34;;;;;;;3.70;2.30;;;25.50;28.70;;;;;;6804042;26;20280;-61
2024/04/13 15:18:40;;;;;;;3.73;2.33;;;25.40;29.00;;;;;;6812853;26;20689;-61
2024/04/13 15:21:56;;;;;;;4.80;2.60;;;25.40;28.90;;;;;;6814345;26;20692;-61
2024/04/13 15:25:05;;;;;;;2.83;2.43;;;25.40;29.00;;;;;;6779960;26;20242;-62
2024/04/13 15:28:25;;;;;;;3.33;2.27;;;25.40;29.30;;;;;;6801048;26;20273;-61
2024/04/13 15:31:29;;;;;;;5.50;2.60;;;25.50;29.10;;;;;;6789527;26;20231;-62
2024/04/13 15:34:44;;;;;;;4.10;2.43;;;25.60;28.90;;;;;;6781067;26;20243;-60
2024/04/13 15:37:50;;;;;;;3.10;2.43;;;25.60;29.10;;;;;;6800431;26;20246;-61
2024/04/13 15:40:56;;;;;;;3.60;2.40;;;25.80;29.10;;;;;;6791521;26;20239;-61
2024/04/13 15:44:01;;;;;;;2.50;2.30;;;25.90;28.60;;;;;;6806919;26;20234;-61
2024/04/13 15:47:07;;;;;;;2.93;2.63;;;25.90;28.40;;;;;;6809900;26;20334;-62
2024/04/13 15:50:09;;;;;;;2.60;2.40;;;25.90;28.70;;;;;;6811357;26;20234;-60
2024/04/13 15:53:14;;;;;;;3.93;2.20;;;25.90;28.70;;;;;;6810551;26;20214;-61
2024/04/13 15:56:17;;;;;;;3.37;2.47;;;25.70;28.60;;;;;;6810625;26;20633;-61
2024/04/13 15:59:25;;;;;;;6.27;2.40;;;25.70;28.50;;;;;;6811565;26;20227;-61
2024/04/13 16:02:28;;;;;;;2.40;2.20;;;25.50;28.60;;;;;;6811545;26;20237;-62
2024/04/13 16:05:42;;;;;;;4.17;2.53;;;25.50;29.10;;;;;;6811228;26;20338;-62
2024/04/13 16:08:49;;;;;;;2.37;2.17;;;25.50;29.00;;;;;;6810788;26;20222;-62
2024/04/13 16:11:56;;;;;;;7.30;2.37;;;25.40;28.90;;;;;;6803126;26;20234;-61
2024/04/13 16:15:20;;;;;;;2.93;2.47;;;25.30;29.20;;;;;;6811211;26;20230;-62
2024/04/13 16:18:27;;;;;;;3.23;2.63;;;25.20;29.40;;;;;;6811798;26;20226;-62
2024/04/13 16:21:30;;;;;;;2.70;2.40;;;25.20;29.50;;;;;;6811147;26;20301;-61
2024/04/13 16:24:38;;;;;;;4.40;3.07;;;25.20;29.40;;;;;;6811166;26;20276;-62
2024/04/13 16:27:43;;;;;;;2.77;2.50;;;25.10;29.40;;;;;;6811072;26;20269;-61
2024/04/13 16:31:11;;;;;;;3.73;2.73;;;25.00;29.40;;;;;;6811414;26;20319;-62
2024/04/13 16:34:15;;;;;;;5.37;2.60;;;25.00;29.80;;;;;;6811600;26;20314;-61